Site contains unofficial IBTrACS data. Visit the IBTrACS Website to access archived data.

1872 Hurricane NOT_NAMED (1872280N18291)


IBTrACS version v04r00. Visit IBTrACS website for data access.
Please direct all questions to the IBTrACS Q and A forum

Storm track - Intensity - Wind Radii - Intensity Data - Source Data - All data

Summary Information

Storm ID 1872280N18291
Start Oct 5 12Z
Landfall Oct 5 18Z
Max Intensity 70 kt (Oct 8 18Z), 982 mb (Oct 11 18Z)
End Oct 12 12Z
ATCF IDs
Track status Best track data.

Storm track plot

Map of storm track

Intensity plots

Map of storm track

Radial wind information

No radial wind information for this storm


Position and Intensity Table

BASIN ISO_TIME_________ NATURE LAT LON MLC WIND MLC PRES
degrees north degrees east kts mb
NA 1872-10-05 12:00:00 TS 17.50 -68.80 40
NA 15:00:00 TS 18.12 -69.34 42
NA 18:00:00 TS 18.70 -69.90 45
NA 21:00:00 TS 19.23 -70.49 47
NA 1872-10-06 00:00:00 TS 19.80 -71.00 50
NA 03:00:00 TS 20.52 -71.34 55
NA 06:00:00 TS 21.30 -71.60 60
NA 09:00:00 TS 22.12 -72.03 60
NA 12:00:00 TS 22.80 -72.20 60
NA 15:00:00 TS 23.18 -71.73 62
NA 18:00:00 TS 23.40 -71.00 65
NA 21:00:00 TS 23.65 -70.44 65
NA 1872-10-07 00:00:00 TS 23.90 -69.90 65
NA 03:00:00 TS 24.20 -69.35 65
NA 06:00:00 TS 24.50 -68.80 65
NA 09:00:00 TS 24.77 -68.23 65
NA 12:00:00 TS 25.00 -67.70 65
NA 15:00:00 TS 25.21 -67.27 65
NA 18:00:00 TS 25.40 -66.90 65
NA 21:00:00 TS 25.56 -66.54 65
NA 1872-10-08 00:00:00 TS 25.70 -66.20 65
NA 03:00:00 TS 25.85 -65.86 65
NA 06:00:00 TS 26.00 -65.50 65
NA 09:00:00 TS 26.10 -65.11 65
NA 12:00:00 TS 26.30 -64.70 65
NA 15:00:00 TS 26.70 -64.30 67
NA 18:00:00 TS 27.20 -63.90 70
NA 21:00:00 TS 27.65 -63.50 70
NA 1872-10-09 00:00:00 TS 28.10 -63.10 70
NA 03:00:00 TS 28.56 -62.70 70
NA 06:00:00 TS 29.00 -62.30 70
NA 09:00:00 TS 29.38 -61.89 70
NA 12:00:00 TS 29.80 -61.50 70
NA 15:00:00 TS 30.33 -61.13 70
NA 18:00:00 TS 30.90 -60.80 70
NA 21:00:00 TS 31.40 -60.49 70
NA 1872-10-10 00:00:00 TS 31.90 -60.20 70
NA 03:00:00 TS 32.45 -59.90 70
NA 06:00:00 TS 33.00 -59.60 70
NA 09:00:00 TS 33.52 -59.28 70
NA 12:00:00 TS 34.00 -59.00 70
NA 15:00:00 TS 34.42 -58.78 70
NA 18:00:00 TS 34.80 -58.60 70
NA 21:00:00 TS 35.15 -58.40 70
NA 1872-10-11 00:00:00 TS 35.50 -58.20 70
NA 03:00:00 TS 35.90 -57.99 70
NA 06:00:00 TS 36.30 -57.80 70
NA 09:00:00 TS 36.61 -57.67 70
NA 12:00:00 TS 37.00 -57.50 70
NA 15:00:00 TS 37.61 -57.19 70
NA 18:00:00 TS 38.30 -56.80 70 982
NA 21:00:00 TS 38.94 -56.42 70
NA 1872-10-12 00:00:00 TS 39.60 -56.00 70
NA 03:00:00 TS 40.28 -55.51 67
NA 06:00:00 TS 41.00 -55.00 65
NA 09:00:00 TS 41.74 -54.50 57
NA 12:00:00 TS 42.50 -54.00 50

Source Information

Agency Information
USA
TOKYO
CMA
HKO
NEWDELHI
REUNION
BOM
NADI
WELLINGTON
DS824
TD9636
TD9635
NEUMANN
MLC

All available IBTrACS Data

SEASON BASIN SUBBASIN ISO_TIME_________ NATURE LAT LON DIST2LAND LANDFALL IFLAG USA SSHS MLC LAT MLC LON MLC CLASS MLC WIND MLC PRES STORM SPEED STORM DIR
Year degrees north degrees east km km 1 degrees north degrees east kts mb kts degrees
1872 NA CS 1872-10-05 12:00:00 TS 17.50 -68.80 78 44 _____________O -1 17.50 -68.80 TS 40 16 320
1872 NA CS 15:00:00 TS 18.12 -69.34 44 0 _____________P -1 18.12 -69.34 TS 42 16 319
1872 NA NA 18:00:00 TS 18.70 -69.90 0 0 _____________O -1 18.70 -69.90 TS 45 16 315
1872 NA NA 21:00:00 TS 19.23 -70.49 0 0 _____________P -1 19.23 -70.49 TS 47 15 317
1872 NA NA 1872-10-06 00:00:00 TS 19.80 -71.00 0 0 _____________O -1 19.80 -71.00 TS 50 15 328
1872 NA NA 03:00:00 TS 20.52 -71.34 78 78 _____________P -1 20.52 -71.34 TS 55 16 339
1872 NA NA 06:00:00 TS 21.30 -71.60 145 132 _____________O -1 21.30 -71.60 TS 60 17 338
1872 NA NA 09:00:00 TS 22.12 -72.03 144 144 _____________P -1 22.12 -72.03 TS 60 16 340
1872 NA NA 12:00:00 TS 22.80 -72.20 196 196 _____________O -1 22.80 -72.20 TS 60 11 15
1872 NA NA 15:00:00 TS 23.18 -71.73 260 260 _____________P -1 23.18 -71.73 TS 62 13 61
1872 NA NA 18:00:00 TS 23.40 -71.00 320 320 _____________O -1 23.40 -71.00 HU 65 13 68
1872 NA NA 21:00:00 TS 23.65 -70.44 378 378 _____________P -1 23.65 -70.44 HU 65 11 64
1872 NA NA 1872-10-07 00:00:00 TS 23.90 -69.90 438 438 _____________O -1 23.90 -69.90 HU 65 11 61
1872 NA NA 03:00:00 TS 24.20 -69.35 506 506 _____________P -1 24.20 -69.35 HU 65 12 59
1872 NA NA 06:00:00 TS 24.50 -68.80 557 557 _____________O -1 24.50 -68.80 HU 65 12 61
1872 NA NA 09:00:00 TS 24.77 -68.23 610 610 _____________P -1 24.77 -68.23 HU 65 11 63
1872 NA NA 12:00:00 TS 25.00 -67.70 648 648 _____________O -1 25.00 -67.70 HU 65 10 63
1872 NA NA 15:00:00 TS 25.21 -67.27 684 684 _____________P -1 25.21 -67.27 HU 65 8 61
1872 NA NA 18:00:00 TS 25.40 -66.90 722 722 _____________O -1 25.40 -66.90 HU 65 7 62
1872 NA NA 21:00:00 TS 25.56 -66.54 760 760 _____________P -1 25.56 -66.54 HU 65 7 65
1872 NA NA 1872-10-08 00:00:00 TS 25.70 -66.20 782 782 _____________O -1 25.70 -66.20 HU 65 7 65
1872 NA NA 03:00:00 TS 25.85 -65.86 805 805 _____________P -1 25.85 -65.86 HU 65 7 65
1872 NA NA 06:00:00 TS 26.00 -65.50 844 844 _____________O -1 26.00 -65.50 HU 65 7 69
1872 NA NA 09:00:00 TS 26.10 -65.11 862 862 _____________P -1 26.10 -65.11 HU 65 8 67
1872 NA NA 12:00:00 TS 26.30 -64.70 887 887 _____________O -1 26.30 -64.70 HU 65 9 50
1872 NA NA 15:00:00 TS 26.70 -64.30 937 937 _____________P -1 26.70 -64.30 HU 67 12 38
1872 NA NA 18:00:00 TS 27.20 -63.90 998 998 _____________O -1 27.20 -63.90 HU 70 12 37
1872 NA NA 21:00:00 TS 27.65 -63.50 1050 1050 _____________P -1 27.65 -63.50 HU 70 11 38
1872 NA NA 1872-10-09 00:00:00 TS 28.10 -63.10 1113 1113 _____________O -1 28.10 -63.10 HU 70 12 38
1872 NA NA 03:00:00 TS 28.56 -62.70 1177 1177 _____________P -1 28.56 -62.70 HU 70 11 38
1872 NA NA 06:00:00 TS 29.00 -62.30 1231 1231 _____________O -1 29.00 -62.30 HU 70 11 41
1872 NA NA 09:00:00 TS 29.38 -61.89 1285 1285 _____________P -1 29.38 -61.89 HU 70 11 41
1872 NA NA 12:00:00 TS 29.80 -61.50 1339 1339 _____________O -1 29.80 -61.50 HU 70 12 35
1872 NA NA 15:00:00 TS 30.33 -61.13 1405 1405 _____________P -1 30.33 -61.13 HU 70 13 29
1872 NA NA 18:00:00 TS 30.90 -60.80 1455 1411 _____________O -1 30.90 -60.80 HU 70 12 27
1872 NA NA 21:00:00 TS 31.40 -60.49 1411 1366 _____________P -1 31.40 -60.49 HU 70 11 27
1872 NA NA 1872-10-10 00:00:00 TS 31.90 -60.20 1366 1322 _____________O -1 31.90 -60.20 HU 70 12 26
1872 NA NA 03:00:00 TS 32.45 -59.90 1322 1269 _____________P -1 32.45 -59.90 HU 70 12 25
1872 NA NA 06:00:00 TS 33.00 -59.60 1269 1228 _____________O -1 33.00 -59.60 HU 70 12 26
1872 NA NA 09:00:00 TS 33.52 -59.28 1228 1188 _____________P -1 33.52 -59.28 HU 70 11 27
1872 NA NA 12:00:00 TS 34.00 -59.00 1188 1156 _____________O -1 34.00 -59.00 HU 70 10 25
1872 NA NA 15:00:00 TS 34.42 -58.78 1156 1125 _____________P -1 34.42 -58.78 HU 70 9 23
1872 NA NA 18:00:00 TS 34.80 -58.60 1125 1101 _____________O -1 34.80 -58.60 HU 70 8 23
1872 NA NA 21:00:00 TS 35.15 -58.40 1105 1076 _____________P -1 35.15 -58.40 HU 70 8 25
1872 NA NA 1872-10-11 00:00:00 TS 35.50 -58.20 1076 1049 _____________O -1 35.50 -58.20 HU 70 8 24
1872 NA NA 03:00:00 TS 35.90 -57.99 1049 1023 _____________P -1 35.90 -57.99 HU 70 9 22
1872 NA NA 06:00:00 TS 36.30 -57.80 1023 997 _____________O -1 36.30 -57.80 HU 70 8 20
1872 NA NA 09:00:00 TS 36.61 -57.67 997 960 _____________P -1 36.61 -57.67 HU 70 7 19
1872 NA NA 12:00:00 TS 37.00 -57.50 960 905 _____________O -1 37.00 -57.50 HU 70 11 21
1872 NA NA 15:00:00 TS 37.61 -57.19 905 845 _____________P -1 37.61 -57.19 HU 70 14 23
1872 NA NA 18:00:00 TS 38.30 -56.80 845 796 _____________O -1 38.30 -56.80 HU 70 982 15 24
1872 NA NA 21:00:00 TS 38.94 -56.42 800 749 _____________P -1 38.94 -56.42 HU 70 14 26
1872 NA NA 1872-10-12 00:00:00 TS 39.60 -56.00 749 713 _____________O -1 39.60 -56.00 HU 70 15 28
1872 NA NA 03:00:00 TS 40.28 -55.51 709 632 _____________P -1 40.28 -55.51 HU 67 16 29
1872 NA NA 06:00:00 TS 41.00 -55.00 632 549 _____________O -1 41.00 -55.00 HU 65 16 28
1872 NA NA 09:00:00 TS 41.74 -54.50 549 456 _____________P -1 41.74 -54.50 HU 57 17 26
1872 NA NA 12:00:00 TS 42.50 -54.00 456 _____________O -1 42.50 -54.00 TS 50 17 26